Time;durP1;ratioP1;P1;durP2;ratioP2;P2;SDS_P1;SDS_P2;PMS_P1;PMS_P2;Temp;Humidity;BMP_temperature;BMP_pressure;BME280_temperature;BME280_humidity;BME280_pressure;Samples;Min_cycle;Max_cycle;Signal;HPM_P1;HPM_P2
2021/03/17 00:02:20;;;;;;;36.87;6.13;;;6.60;99.90;;;;;;5006981;28;20225;-60
2021/03/17 00:04:48;;;;;;;39.13;6.37;;;6.60;99.90;;;;;;5009321;28;20201;-60
2021/03/17 00:07:15;;;;;;;31.97;5.93;;;6.60;99.90;;;;;;5010561;28;20228;-60
2021/03/17 00:09:42;;;;;;;39.33;5.37;;;6.60;99.90;;;;;;5008201;28;20227;-69
2021/03/17 00:12:11;;;;;;;38.17;6.10;;;6.60;99.90;;;;;;5008850;28;20197;-70
2021/03/17 00:14:39;;;;;;;33.30;6.03;;;6.60;99.90;;;;;;5007498;28;20201;-70
2021/03/17 00:17:06;;;;;;;33.07;6.03;;;6.60;99.90;;;;;;5010424;28;20257;-70
2021/03/17 00:19:35;;;;;;;32.47;5.90;;;6.60;99.90;;;;;;5008413;28;20293;-69
2021/03/17 00:22:02;;;;;;;36.37;6.73;;;6.60;99.90;;;;;;5008942;28;20205;-70
2021/03/17 00:24:29;;;;;;;32.43;6.20;;;6.70;99.90;;;;;;5007219;28;20194;-70
2021/03/17 00:26:57;;;;;;;37.03;5.97;;;6.60;99.90;;;;;;5009831;28;20289;-70
2021/03/17 00:29:25;;;;;;;33.70;7.80;;;6.60;99.90;;;;;;5009138;28;20198;-70
2021/03/17 00:31:52;;;;;;;25.93;7.50;;;6.60;99.90;;;;;;5008376;28;20264;-70
2021/03/17 00:34:20;;;;;;;44.03;9.47;;;6.60;99.90;;;;;;5007780;28;20213;-70
2021/03/17 00:36:48;;;;;;;34.90;12.93;;;6.60;99.90;;;;;;5007563;28;20237;-70
2021/03/17 00:39:15;;;;;;;29.37;12.53;;;6.50;99.90;;;;;;5009304;28;20190;-70
2021/03/17 00:41:43;;;;;;;31.10;13.43;;;6.40;99.90;;;;;;5008373;28;20256;-70
2021/03/17 00:44:22;;;;;;;26.97;14.37;;;6.40;99.90;;;;;;5005647;28;20238;-70
2021/03/17 00:46:50;;;;;;;27.77;15.77;;;6.30;99.90;;;;;;5007397;28;20277;-70
2021/03/17 00:49:18;;;;;;;32.03;18.03;;;6.10;99.90;;;;;;5020561;28;20241;-70
2021/03/17 00:51:46;;;;;;;30.37;19.43;;;6.00;99.90;;;;;;5006830;28;20201;-70
2021/03/17 00:54:14;;;;;;;39.93;22.33;;;5.90;99.90;;;;;;5007326;28;20199;-70
2021/03/17 00:56:41;;;;;;;42.13;22.63;;;5.80;99.90;;;;;;5008401;28;20198;-70
2021/03/17 00:59:09;;;;;;;40.33;21.93;;;5.80;99.90;;;;;;5007972;28;20289;-69
2021/03/17 01:01:36;;;;;;;36.07;20.57;;;5.80;99.90;;;;;;5009953;28;20201;-70
2021/03/17 01:04:05;;;;;;;34.23;18.87;;;5.70;99.90;;;;;;5007047;28;20190;-70
2021/03/17 01:06:33;;;;;;;33.70;19.47;;;5.70;99.90;;;;;;5009626;28;20205;-70
2021/03/17 01:09:00;;;;;;;36.50;19.00;;;5.60;99.90;;;;;;5007067;28;20289;-70
2021/03/17 01:11:28;;;;;;;36.67;19.40;;;5.60;99.90;;;;;;5007902;28;20198;-69
2021/03/17 01:13:55;;;;;;;37.73;20.23;;;5.60;99.90;;;;;;5008193;28;20696;-69
2021/03/17 01:16:23;;;;;;;35.47;19.53;;;5.60;99.90;;;;;;5009323;28;20662;-70
2021/03/17 01:18:56;;;;;;;33.77;19.73;;;5.60;99.90;;;;;;5008576;28;20217;-70
2021/03/17 01:21:24;;;;;;;35.80;19.73;;;5.60;99.90;;;;;;5009694;28;20596;-70
2021/03/17 01:23:52;;;;;;;38.37;20.87;;;5.60;99.90;;;;;;5008315;28;20205;-70
2021/03/17 01:26:19;;;;;;;38.50;21.33;;;5.50;99.90;;;;;;5009499;28;20264;-69
2021/03/17 01:28:47;;;;;;;43.03;23.20;;;5.50;99.90;;;;;;5008775;28;20600;-70
2021/03/17 01:31:14;;;;;;;43.90;23.23;;;5.50;99.90;;;;;;5004061;28;20915;-70
2021/03/17 01:33:42;;;;;;;42.10;22.17;;;5.40;99.90;;;;;;5008654;28;20202;-70
2021/03/17 01:36:09;;;;;;;41.00;21.73;;;5.40;99.90;;;;;;5008497;28;20313;-70
2021/03/17 01:38:38;;;;;;;46.87;23.17;;;5.40;99.90;;;;;;5007000;28;20224;-68
2021/03/17 01:41:05;;;;;;;45.80;23.93;;;5.40;99.90;;;;;;5017596;28;20285;-70
2021/03/17 01:43:33;;;;;;;45.47;23.00;;;5.40;99.90;;;;;;5008821;28;20203;-70
2021/03/17 01:46:01;;;;;;;47.30;23.07;;;5.40;99.90;;;;;;5007010;28;20281;-70
2021/03/17 01:48:29;;;;;;;44.63;23.63;;;5.50;99.90;;;;;;5008026;28;20217;-65
2021/03/17 01:50:57;;;;;;;40.90;22.53;;;5.50;99.90;;;;;;5011074;28;20244;-70
2021/03/17 01:53:27;;;;;;;46.03;22.77;;;5.50;99.90;;;;;;5012146;28;20241;-69
2021/03/17 01:55:56;;;;;;;37.67;20.03;;;5.50;99.90;;;;;;5007861;28;20198;-69
2021/03/17 01:58:25;;;;;;;32.00;18.10;;;5.50;99.90;;;;;;5010245;28;20308;-70
2021/03/17 02:00:53;;;;;;;29.53;16.97;;;5.50;99.90;;;;;;5006941;28;20190;-70
2021/03/17 02:03:21;;;;;;;26.17;15.87;;;5.50;99.90;;;;;;5009757;28;20214;-70
2021/03/17 02:05:50;;;;;;;25.17;15.13;;;5.50;99.90;;;;;;5011243;28;20198;-69
2021/03/17 02:08:20;;;;;;;24.73;14.93;;;5.50;99.90;;;;;;5009821;28;20202;-69
2021/03/17 02:10:49;;;;;;;23.67;14.87;;;5.40;99.90;;;;;;5011943;28;20296;-70
2021/03/17 02:13:41;;;;;;;22.93;15.03;;;5.50;99.90;;;;;;5008488;28;20205;-70
2021/03/17 02:16:17;;;;;;;22.43;14.23;;;5.40;99.90;;;;;;4999651;28;20234;-69
2021/03/17 02:18:55;;;;;;;23.97;14.23;;;5.40;99.90;;;;;;5008383;28;20305;-69
2021/03/17 02:21:47;;;;;;;21.43;14.43;;;5.40;99.90;;;;;;5009863;28;20284;-70
2021/03/17 02:24:20;;;;;;;24.43;14.67;;;5.30;99.90;;;;;;5008245;28;20224;-72
2021/03/17 02:27:23;;;;;;;22.70;14.30;;;5.30;99.90;;;;;;5006403;28;20201;-70
2021/03/17 02:30:24;;;;;;;22.33;14.93;;;5.30;99.90;;;;;;5011067;28;20252;-70
2021/03/17 02:33:27;;;;;;;22.40;14.93;;;5.30;99.90;;;;;;5009856;28;20541;-69
2021/03/17 02:36:02;;;;;;;21.87;14.73;;;5.20;99.90;;;;;;5011852;28;20193;-70
2021/03/17 02:38:32;;;;;;;22.07;15.37;;;5.20;99.90;;;;;;5010848;28;20279;-70
2021/03/17 02:41:02;;;;;;;24.43;16.40;;;5.20;99.90;;;;;;5006549;28;20202;-69
2021/03/17 02:43:31;;;;;;;24.17;15.87;;;5.20;99.90;;;;;;5010864;28;20197;-70
2021/03/17 02:46:03;;;;;;;24.63;16.83;;;5.20;99.90;;;;;;5010517;28;20277;-70
2021/03/17 02:48:36;;;;;;;22.30;15.33;;;5.10;99.90;;;;;;5007907;28;20560;-69
2021/03/17 02:51:11;;;;;;;24.73;16.27;;;5.10;99.90;;;;;;5010902;28;20198;-70
2021/03/17 02:53:41;;;;;;;22.97;15.97;;;5.10;99.90;;;;;;5010210;28;20244;-70
2021/03/17 02:56:12;;;;;;;25.50;17.10;;;5.00;99.90;;;;;;5011633;28;20202;-70
2021/03/17 02:58:44;;;;;;;25.47;16.57;;;5.00;99.90;;;;;;5009707;28;20771;-70
2021/03/17 03:01:17;;;;;;;27.23;16.70;;;5.00;99.90;;;;;;5009882;28;20197;-70
2021/03/17 03:03:46;;;;;;;25.80;17.07;;;5.00;99.90;;;;;;5010973;28;20290;-70
2021/03/17 03:06:18;;;;;;;27.40;17.60;;;5.00;99.90;;;;;;5009947;28;20194;-68
2021/03/17 03:08:46;;;;;;;25.73;16.77;;;5.00;99.90;;;;;;4997487;28;20256;-70
2021/03/17 03:11:16;;;;;;;29.80;18.13;;;5.00;99.90;;;;;;5009330;28;20625;-69
2021/03/17 03:13:45;;;;;;;28.37;17.67;;;5.00;99.90;;;;;;5011974;28;20244;-70
2021/03/17 03:16:14;;;;;;;27.60;17.50;;;5.10;99.90;;;;;;5009755;28;20261;-70
2021/03/17 03:18:44;;;;;;;27.87;17.00;;;5.10;99.90;;;;;;5011988;28;20203;-70
2021/03/17 03:21:12;;;;;;;27.20;17.53;;;5.10;99.90;;;;;;5008211;28;20289;-70
2021/03/17 03:23:40;;;;;;;28.23;18.07;;;5.10;99.90;;;;;;5011851;28;20194;-70
2021/03/17 03:26:09;;;;;;;28.07;18.10;;;5.10;99.90;;;;;;5007975;28;20229;-70
2021/03/17 03:28:38;;;;;;;30.80;18.17;;;5.00;99.90;;;;;;5011861;28;20297;-70
2021/03/17 03:31:05;;;;;;;24.90;16.23;;;5.00;99.90;;;;;;5009371;28;20519;-69
2021/03/17 03:33:34;;;;;;;26.53;16.93;;;5.00;99.90;;;;;;5011297;28;20723;-70
2021/03/17 03:36:02;;;;;;;24.03;16.43;;;5.00;99.90;;;;;;5010609;28;20194;-70
2021/03/17 03:38:29;;;;;;;27.17;16.70;;;5.00;99.90;;;;;;5008216;28;20309;-69
2021/03/17 03:40:57;;;;;;;26.83;17.30;;;5.00;99.90;;;;;;5005137;28;20211;-70
2021/03/17 03:43:25;;;;;;;26.80;17.70;;;5.00;99.90;;;;;;5010393;28;20205;-70
2021/03/17 03:45:52;;;;;;;28.93;18.20;;;5.00;99.90;;;;;;5022705;28;20665;-70
2021/03/17 03:48:21;;;;;;;29.03;18.13;;;5.00;99.90;;;;;;5008030;28;20284;-69
2021/03/17 03:50:50;;;;;;;29.87;18.53;;;5.10;99.90;;;;;;5009553;28;20260;-70
2021/03/17 03:53:32;;;;;;;30.30;18.63;;;5.10;99.90;;;;;;5007468;28;20271;-70
2021/03/17 03:56:06;;;;;;;27.43;17.60;;;5.10;99.90;;;;;;5005390;28;20256;-70
2021/03/17 03:58:50;;;;;;;29.83;19.00;;;5.10;99.90;;;;;;5009499;28;20236;-70
2021/03/17 04:01:23;;;;;;;30.57;19.57;;;5.10;99.90;;;;;;5003227;28;20687;-70
2021/03/17 04:04:03;;;;;;;29.97;18.73;;;5.10;99.90;;;;;;5006953;28;20201;-68
2021/03/17 04:06:33;;;;;;;31.50;19.03;;;5.10;99.90;;;;;;5005383;28;20634;-70
2021/03/17 04:09:03;;;;;;;30.50;19.13;;;5.00;99.90;;;;;;5008575;28;20676;-70
2021/03/17 04:11:32;;;;;;;30.83;18.03;;;5.00;99.90;;;;;;5008819;28;20232;-70
2021/03/17 04:14:05;;;;;;;29.73;18.13;;;5.00;99.90;;;;;;5010081;28;20537;-70
2021/03/17 04:16:40;;;;;;;31.33;19.23;;;5.00;99.90;;;;;;4993737;28;20265;-69
2021/03/17 04:19:10;;;;;;;28.47;17.83;;;5.00;99.90;;;;;;5009501;28;20591;-70
2021/03/17 04:21:41;;;;;;;31.93;18.13;;;5.00;99.90;;;;;;5008610;28;20198;-70
2021/03/17 04:24:10;;;;;;;31.33;19.10;;;5.00;99.90;;;;;;5009617;28;20656;-70
2021/03/17 04:26:39;;;;;;;30.17;18.27;;;5.10;99.90;;;;;;5009274;28;20208;-68
2021/03/17 04:29:07;;;;;;;30.93;17.90;;;5.10;99.90;;;;;;5007799;28;20285;-70
2021/03/17 04:31:36;;;;;;;29.07;17.77;;;5.20;99.90;;;;;;5008344;28;20197;-70
2021/03/17 04:34:03;;;;;;;32.40;19.43;;;5.20;99.90;;;;;;5010303;28;20202;-70
2021/03/17 04:36:32;;;;;;;30.20;18.77;;;5.10;99.90;;;;;;5008176;28;20260;-69
2021/03/17 04:39:01;;;;;;;29.30;17.40;;;5.10;99.90;;;;;;5006290;28;20218;-69
2021/03/17 04:41:28;;;;;;;28.70;16.37;;;5.10;99.90;;;;;;5009043;28;20194;-70
2021/03/17 04:43:59;;;;;;;27.37;16.40;;;5.10;99.90;;;;;;5006677;28;20297;-70
2021/03/17 04:46:28;;;;;;;26.23;15.27;;;5.10;99.90;;;;;;5006813;28;20241;-70
2021/03/17 04:48:56;;;;;;;27.10;15.83;;;5.10;99.90;;;;;;5008598;28;20194;-70
2021/03/17 04:51:24;;;;;;;30.00;16.47;;;5.10;99.90;;;;;;5003841;28;20222;-70
2021/03/17 04:53:52;;;;;;;32.63;17.00;;;5.20;99.90;;;;;;5009194;28;20198;-70
2021/03/17 04:56:20;;;;;;;36.70;18.63;;;5.20;99.90;;;;;;5006938;28;20193;-71
2021/03/17 04:58:52;;;;;;;34.47;19.63;;;5.20;99.90;;;;;;5021508;28;20206;-70
2021/03/17 05:01:21;;;;;;;35.43;18.83;;;5.20;99.90;;;;;;5003253;28;20252;-70
2021/03/17 05:03:50;;;;;;;36.80;19.87;;;5.10;99.90;;;;;;5009445;28;20221;-70
2021/03/17 05:06:18;;;;;;;38.70;20.43;;;5.10;99.90;;;;;;5008023;28;20763;-70
2021/03/17 05:08:46;;;;;;;39.50;19.87;;;5.10;99.90;;;;;;5007266;28;20240;-70
2021/03/17 05:11:15;;;;;;;37.47;20.80;;;5.20;99.90;;;;;;5007722;28;20186;-69
2021/03/17 05:13:42;;;;;;;37.90;20.77;;;5.20;99.90;;;;;;5009146;28;20277;-70
2021/03/17 05:16:12;;;;;;;39.00;20.47;;;5.20;99.90;;;;;;5008648;28;20738;-70
2021/03/17 05:18:46;;;;;;;40.67;20.77;;;5.20;99.90;;;;;;5007713;28;20214;-69
2021/03/17 05:21:15;;;;;;;41.53;21.07;;;5.20;99.90;;;;;;5007821;28;20194;-70
2021/03/17 05:23:43;;;;;;;43.50;21.57;;;5.20;99.90;;;;;;5012522;28;20696;-70
2021/03/17 05:26:12;;;;;;;41.00;21.00;;;5.20;99.90;;;;;;5012160;28;20749;-69
2021/03/17 05:28:40;;;;;;;39.07;20.60;;;5.30;99.90;;;;;;5013363;28;20260;-68
2021/03/17 05:31:09;;;;;;;37.93;20.33;;;5.30;99.90;;;;;;5011935;28;20194;-70
2021/03/17 05:33:37;;;;;;;35.90;20.27;;;5.30;99.90;;;;;;5010395;28;20202;-70
2021/03/17 05:36:07;;;;;;;35.77;19.57;;;5.30;99.90;;;;;;5009967;28;20593;-69
2021/03/17 05:38:34;;;;;;;35.50;19.27;;;5.30;99.90;;;;;;5010720;28;20213;-68
2021/03/17 05:41:02;;;;;;;31.90;18.37;;;5.40;99.90;;;;;;5012484;28;20636;-70
2021/03/17 05:43:31;;;;;;;35.43;19.10;;;5.40;99.90;;;;;;5013480;28;20202;-70
2021/03/17 05:46:02;;;;;;;32.43;18.10;;;5.40;99.90;;;;;;5010088;28;20282;-70
2021/03/17 05:48:32;;;;;;;33.83;17.80;;;5.40;99.90;;;;;;5004880;28;20688;-70
2021/03/17 05:51:00;;;;;;;35.00;17.40;;;5.40;99.90;;;;;;5010338;28;20245;-69
2021/03/17 05:53:29;;;;;;;29.07;16.70;;;5.40;99.90;;;;;;5011787;28;20641;-70
2021/03/17 05:56:00;;;;;;;34.43;17.13;;;5.30;99.90;;;;;;5006421;28;20199;-69
2021/03/17 05:58:29;;;;;;;30.40;15.90;;;5.30;99.90;;;;;;5008358;28;20351;-67
2021/03/17 06:00:56;;;;;;;28.93;15.47;;;5.30;99.90;;;;;;5008909;28;20585;-70
2021/03/17 06:03:26;;;;;;;25.13;15.03;;;5.30;99.90;;;;;;5011305;28;21703;-70
2021/03/17 06:05:54;;;;;;;27.10;13.67;;;5.20;99.90;;;;;;5011838;28;20218;-70
2021/03/17 06:08:25;;;;;;;25.53;12.63;;;5.20;99.90;;;;;;5009634;28;20197;-70
2021/03/17 06:10:56;;;;;;;26.23;12.87;;;5.20;99.90;;;;;;5011355;28;20234;-70
2021/03/17 06:13:27;;;;;;;30.17;12.57;;;5.20;99.90;;;;;;5011098;28;20186;-70
2021/03/17 06:15:59;;;;;;;30.40;12.20;;;5.20;99.90;;;;;;5010411;28;20813;-70
2021/03/17 06:18:34;;;;;;;20.37;10.90;;;5.30;99.90;;;;;;5010111;28;20214;-70
2021/03/17 06:21:02;;;;;;;26.83;10.50;;;5.40;99.90;;;;;;5011616;28;20202;-70
2021/03/17 06:23:30;;;;;;;22.23;9.77;;;5.40;99.90;;;;;;5004346;28;20203;-69
2021/03/17 06:25:59;;;;;;;21.73;9.93;;;5.50;99.90;;;;;;5006337;28;20732;-69
2021/03/17 06:28:29;;;;;;;19.47;9.37;;;5.60;99.90;;;;;;5006808;28;20205;-70
2021/03/17 06:30:57;;;;;;;21.40;8.67;;;5.70;99.90;;;;;;5004743;28;20677;-70
2021/03/17 06:33:26;;;;;;;15.10;8.07;;;5.70;99.90;;;;;;5004674;28;20194;-70
2021/03/17 06:36:11;;;;;;;22.40;7.33;;;5.80;99.90;;;;;;5007901;28;20296;-70
2021/03/17 06:38:39;;;;;;;22.87;7.20;;;5.80;99.90;;;;;;5008179;28;20202;-70
2021/03/17 06:41:08;;;;;;;21.03;7.10;;;5.90;99.90;;;;;;5010741;28;20208;-70
2021/03/17 06:43:37;;;;;;;16.10;5.67;;;6.00;99.90;;;;;;5010499;28;20653;-69
2021/03/17 06:46:06;;;;;;;14.43;4.57;;;6.00;99.90;;;;;;5022091;28;20305;-70
2021/03/17 06:48:54;;;;;;;13.93;5.27;;;6.00;99.90;;;;;;5008950;28;20195;-70
2021/03/17 06:51:22;;;;;;;14.83;4.33;;;6.00;99.90;;;;;;5009219;28;20186;-70
2021/03/17 06:53:51;;;;;;;14.10;3.90;;;6.10;99.90;;;;;;5009915;28;20216;-70
2021/03/17 06:56:22;;;;;;;11.53;3.23;;;6.10;99.90;;;;;;5007853;28;20220;-71
2021/03/17 06:58:50;;;;;;;10.40;3.80;;;6.10;99.90;;;;;;5009689;28;20309;-70
2021/03/17 07:01:26;;;;;;;7.27;3.23;;;6.10;99.90;;;;;;5009647;28;20194;-70
2021/03/17 07:03:56;;;;;;;10.10;3.37;;;6.20;99.90;;;;;;5008065;28;20259;-70
2021/03/17 07:06:24;;;;;;;10.30;3.37;;;6.20;99.90;;;;;;5009388;28;20611;-70
2021/03/17 07:08:52;;;;;;;9.10;3.07;;;6.20;99.90;;;;;;5008887;28;20276;-70
2021/03/17 07:11:28;;;;;;;13.17;3.33;;;6.30;99.90;;;;;;5010818;28;20285;-70
2021/03/17 07:14:00;;;;;;;10.97;3.17;;;6.30;99.90;;;;;;5025470;28;20202;-70
2021/03/17 07:16:40;;;;;;;10.80;3.00;;;6.30;99.90;;;;;;4979566;28;916891;-70
2021/03/17 07:19:40;;;;;;;10.93;3.27;;;6.30;99.90;;;;;;5012158;28;20210;-70
2021/03/17 07:22:09;;;;;;;7.17;2.60;;;6.30;99.90;;;;;;5008576;28;20225;-70
2021/03/17 07:24:38;;;;;;;12.07;3.63;;;6.30;99.90;;;;;;5011936;28;20304;-70
2021/03/17 07:27:17;;;;;;;9.90;3.70;;;6.30;99.90;;;;;;5010254;28;20229;-70
2021/03/17 07:30:06;;;;;;;6.17;3.30;;;6.40;99.90;;;;;;5007884;28;20190;-69
2021/03/17 07:32:56;;;;;;;16.77;3.90;;;6.40;99.90;;;;;;5008875;28;20190;-70
2021/03/17 07:35:26;;;;;;;10.93;3.93;;;6.50;99.90;;;;;;5015240;28;20194;-70
2021/03/17 07:38:04;;;;;;;27.63;4.83;;;6.50;99.90;;;;;;5009550;28;20224;-70
2021/03/17 07:40:39;;;;;;;20.20;4.80;;;6.50;99.90;;;;;;5007341;28;20202;-69
2021/03/17 07:43:10;;;;;;;20.27;4.40;;;6.50;99.90;;;;;;5008270;28;20781;-70
2021/03/17 07:45:38;;;;;;;22.93;5.37;;;6.60;99.90;;;;;;5006298;28;20233;-70
2021/03/17 07:48:09;;;;;;;22.63;5.07;;;6.60;99.90;;;;;;5006201;28;20198;-70
2021/03/17 07:50:39;;;;;;;27.17;5.20;;;6.60;99.90;;;;;;5008838;28;20680;-70
2021/03/17 07:53:08;;;;;;;37.13;6.43;;;6.60;99.90;;;;;;5008664;28;20276;-70
2021/03/17 07:55:39;;;;;;;54.37;7.27;;;6.60;99.90;;;;;;5009547;28;20209;-69
2021/03/17 07:58:09;;;;;;;42.07;7.10;;;6.70;99.90;;;;;;5009441;28;20214;-69
2021/03/17 08:00:38;;;;;;;42.63;6.77;;;6.70;99.90;;;;;;5010709;28;20193;-70
2021/03/17 08:03:06;;;;;;;36.77;6.77;;;6.70;99.90;;;;;;5009608;28;20293;-68
2021/03/17 08:05:35;;;;;;;38.17;7.17;;;6.70;99.90;;;;;;5009222;28;20266;-70
2021/03/17 08:08:06;;;;;;;52.73;7.20;;;6.70;99.90;;;;;;5008043;28;20190;-69
2021/03/17 08:10:36;;;;;;;49.47;7.27;;;6.70;99.90;;;;;;5008961;28;20225;-67
2021/03/17 08:13:05;;;;;;;39.90;6.20;;;6.80;99.90;;;;;;5023920;28;20194;-68
2021/03/17 08:15:34;;;;;;;35.20;5.03;;;6.80;99.90;;;;;;5009622;28;20266;-70
2021/03/17 08:18:01;;;;;;;29.33;4.00;;;6.80;99.90;;;;;;5008816;28;20236;-70
2021/03/17 08:20:29;;;;;;;31.23;4.40;;;6.90;99.90;;;;;;5010846;28;20656;-70
2021/03/17 08:22:58;;;;;;;28.17;4.60;;;7.00;99.90;;;;;;5009949;28;21668;-70
2021/03/17 08:25:37;;;;;;;20.30;3.73;;;7.10;99.90;;;;;;5009960;28;20702;-69
2021/03/17 08:28:23;;;;;;;15.90;3.23;;;7.10;99.90;;;;;;5007861;28;20198;-70
2021/03/17 08:30:54;;;;;;;15.00;2.87;;;7.20;99.90;;;;;;5009693;28;20194;-70
2021/03/17 08:33:32;;;;;;;13.30;2.50;;;7.20;99.90;;;;;;5008811;28;20200;-70
2021/03/17 08:36:08;;;;;;;10.07;2.53;;;7.20;99.90;;;;;;5009567;28;20588;-69
2021/03/17 08:38:50;;;;;;;12.00;2.90;;;7.30;99.90;;;;;;5008724;28;20237;-66
2021/03/17 08:41:38;;;;;;;15.03;2.83;;;7.30;99.90;;;;;;5007479;28;20185;-69
2021/03/17 08:44:16;;;;;;;9.67;2.63;;;7.50;99.90;;;;;;5007602;28;20698;-70
2021/03/17 08:46:47;;;;;;;9.10;3.17;;;7.70;99.90;;;;;;5010059;28;20193;-69
2021/03/17 08:49:25;;;;;;;11.03;3.00;;;7.70;99.90;;;;;;5009329;28;20190;-69
2021/03/17 08:52:05;;;;;;;11.67;2.80;;;7.70;99.90;;;;;;5009345;28;20189;-70
2021/03/17 08:54:59;;;;;;;16.70;3.47;;;7.70;99.90;;;;;;5008611;28;20201;-69
2021/03/17 08:58:02;;;;;;;15.83;3.57;;;7.70;99.90;;;;;;5007616;28;20221;-70
2021/03/17 09:00:49;;;;;;;8.17;2.70;;;7.60;99.90;;;;;;5008475;28;20235;-69
2021/03/17 09:03:49;;;;;;;5.80;2.50;;;7.60;99.90;;;;;;5005892;28;20296;-70
2021/03/17 09:06:26;;;;;;;7.37;2.83;;;7.40;99.90;;;;;;5010089;28;20280;-70
2021/03/17 09:09:05;;;;;;;10.73;3.30;;;7.40;99.90;;;;;;5009667;28;20186;-70
2021/03/17 09:12:00;;;;;;;4.87;2.83;;;7.60;99.90;;;;;;5008840;28;20201;-70
2021/03/17 09:14:35;;;;;;;6.63;2.73;;;7.90;99.90;;;;;;5000426;28;20206;-69
2021/03/17 09:17:18;;;;;;;4.17;2.33;;;8.10;99.90;;;;;;5007196;28;20245;-70
2021/03/17 09:20:13;;;;;;;5.83;2.57;;;8.30;99.90;;;;;;5005232;28;20222;-70
2021/03/17 09:22:44;;;;;;;6.30;2.17;;;8.50;99.90;;;;;;5006405;28;20247;-69
2021/03/17 09:25:20;;;;;;;4.63;1.93;;;8.50;99.90;;;;;;5004906;28;20193;-68
2021/03/17 09:27:50;;;;;;;6.43;2.20;;;8.30;99.90;;;;;;5006886;28;20680;-70
2021/03/17 09:30:19;;;;;;;5.77;2.10;;;8.40;99.90;;;;;;5008413;28;20289;-70
2021/03/17 09:32:58;;;;;;;2.63;1.60;;;8.60;99.90;;;;;;5009337;28;20194;-63
2021/03/17 09:35:26;;;;;;;4.87;1.60;;;8.60;99.90;;;;;;5009090;28;20186;-70
2021/03/17 09:38:19;;;;;;;1.60;1.50;;;8.40;99.90;;;;;;5006562;28;20252;-68
2021/03/17 09:40:50;;;;;;;2.93;1.50;;;8.30;99.90;;;;;;5006411;28;20198;-70
2021/03/17 09:43:41;;;;;;;3.00;1.77;;;8.20;99.90;;;;;;5008028;28;20279;-69
2021/03/17 09:46:19;;;;;;;1.60;1.50;;;8.00;99.90;;;;;;5008493;28;20206;-69
2021/03/17 09:48:52;;;;;;;2.87;1.70;;;7.90;99.90;;;;;;5007993;28;20208;-70
2021/03/17 09:51:26;;;;;;;4.60;1.67;;;8.20;99.90;;;;;;5007649;28;20193;-69
2021/03/17 09:53:54;;;;;;;3.80;1.60;;;8.70;99.90;;;;;;5007512;28;20206;-68
2021/03/17 09:56:37;;;;;;;2.77;1.43;;;9.30;99.90;;;;;;5008192;28;20289;-69
2021/03/17 09:59:22;;;;;;;1.73;1.63;;;9.40;99.90;;;;;;4998686;28;20210;-68
2021/03/17 10:01:55;;;;;;;5.60;1.53;;;9.30;99.90;;;;;;5005457;28;20218;-65
2021/03/17 10:04:26;;;;;;;1.63;1.57;;;9.30;99.90;;;;;;5007245;28;20202;-69
2021/03/17 10:06:55;;;;;;;2.10;1.60;;;9.00;99.90;;;;;;5008675;28;20677;-69
2021/03/17 10:09:28;;;;;;;1.70;1.70;;;8.90;99.90;;;;;;5012638;28;20666;-69
2021/03/17 10:12:01;;;;;;;2.10;1.90;;;8.70;99.90;;;;;;5011169;28;20190;-69
2021/03/17 10:14:29;;;;;;;3.97;1.70;;;8.40;99.90;;;;;;5005380;28;20268;-67
2021/03/17 10:16:59;;;;;;;1.97;1.87;;;8.30;99.90;;;;;;5013083;28;20277;-68
2021/03/17 10:19:29;;;;;;;3.70;2.10;;;8.10;99.90;;;;;;5009108;28;20283;-69
2021/03/17 10:21:58;;;;;;;4.03;1.90;;;7.90;99.90;;;;;;5011986;28;20194;-69
2021/03/17 10:24:38;;;;;;;2.10;1.90;;;7.80;99.90;;;;;;5011767;28;20747;-69
2021/03/17 10:27:09;;;;;;;7.60;2.20;;;7.70;99.90;;;;;;5023999;28;20194;-68
2021/03/17 10:29:37;;;;;;;2.60;2.00;;;7.60;99.90;;;;;;5011648;28;20268;-68
2021/03/17 10:32:06;;;;;;;2.43;2.13;;;7.60;99.90;;;;;;5011585;28;20665;-69
2021/03/17 10:34:34;;;;;;;2.40;2.20;;;7.80;99.90;;;;;;5011406;28;20197;-69
2021/03/17 10:37:03;;;;;;;5.77;2.00;;;8.00;99.90;;;;;;5013016;28;20281;-69
2021/03/17 10:39:33;;;;;;;2.63;2.43;;;8.10;99.90;;;;;;5012275;28;20218;-68
2021/03/17 10:42:04;;;;;;;6.87;1.80;;;8.20;99.90;;;;;;5010588;28;20244;-69
2021/03/17 10:44:32;;;;;;;3.87;2.00;;;8.20;99.90;;;;;;5005472;28;20284;-69
2021/03/17 10:47:03;;;;;;;2.50;1.83;;;8.30;99.90;;;;;;5011484;28;20229;-68
2021/03/17 10:49:33;;;;;;;5.93;2.73;;;8.30;99.90;;;;;;5010567;28;20190;-69
2021/03/17 10:52:08;;;;;;;5.33;2.40;;;8.00;99.90;;;;;;5011418;28;20187;-69
2021/03/17 10:54:37;;;;;;;3.00;1.73;;;7.90;99.90;;;;;;5011510;28;20226;-69
2021/03/17 10:57:19;;;;;;;6.17;2.20;;;7.90;99.90;;;;;;5005520;28;20194;-69
2021/03/17 10:59:47;;;;;;;5.73;2.20;;;7.90;99.90;;;;;;5025958;28;20214;-69
2021/03/17 11:02:25;;;;;;;2.50;1.80;;;7.90;99.90;;;;;;5011753;28;20228;-69
2021/03/17 11:05:21;;;;;;;5.53;2.43;;;8.00;99.90;;;;;;5010481;28;20194;-66
2021/03/17 11:07:57;;;;;;;6.97;2.17;;;8.00;99.90;;;;;;5012273;28;20206;-68
2021/03/17 11:10:49;;;;;;;2.53;1.80;;;8.00;99.90;;;;;;5011620;28;20197;-69
2021/03/17 11:13:42;;;;;;;2.43;1.60;;;7.90;99.90;;;;;;5012221;28;20288;-69
2021/03/17 11:16:36;;;;;;;5.70;1.90;;;8.00;99.90;;;;;;5011580;28;20585;-69
2021/03/17 11:19:11;;;;;;;3.90;1.87;;;8.00;99.90;;;;;;5010737;28;20217;-69
2021/03/17 11:21:40;;;;;;;9.33;2.27;;;8.10;99.90;;;;;;5011659;28;20289;-69
2021/03/17 11:24:18;;;;;;;5.83;1.90;;;8.10;99.90;;;;;;5001008;28;20229;-70
2021/03/17 11:26:48;;;;;;;5.73;2.40;;;8.00;99.90;;;;;;5007567;28;20191;-69
2021/03/17 11:29:19;;;;;;;4.90;1.90;;;8.00;99.90;;;;;;5011188;28;20706;-70
2021/03/17 11:31:47;;;;;;;7.10;2.27;;;8.00;99.90;;;;;;5010992;28;20194;-70
2021/03/17 11:34:16;;;;;;;2.97;1.97;;;8.10;99.90;;;;;;5008052;28;20195;-67
2021/03/17 11:36:45;;;;;;;4.23;1.50;;;8.20;99.90;;;;;;5004475;28;20619;-70
2021/03/17 11:39:15;;;;;;;7.10;1.60;;;8.40;99.90;;;;;;5008502;28;20309;-68
2021/03/17 11:41:45;;;;;;;8.87;1.90;;;8.50;99.90;;;;;;5008915;28;20226;-68
2021/03/17 11:44:14;;;;;;;10.53;1.80;;;8.50;99.90;;;;;;5022084;28;20198;-69
2021/03/17 11:46:41;;;;;;;8.10;1.83;;;8.60;99.90;;;;;;5006279;28;20202;-69
2021/03/17 11:49:11;;;;;;;7.63;1.80;;;8.60;99.90;;;;;;5009334;28;20194;-70
2021/03/17 11:51:43;;;;;;;3.87;1.63;;;8.60;99.90;;;;;;5006232;28;20197;-69
2021/03/17 11:54:11;;;;;;;2.87;1.77;;;8.60;99.90;;;;;;5008955;28;20783;-68
2021/03/17 11:56:39;;;;;;;4.30;1.67;;;8.60;99.90;;;;;;5005988;28;20229;-69
2021/03/17 11:59:07;;;;;;;4.33;1.60;;;8.70;99.90;;;;;;5009417;28;20543;-69
2021/03/17 12:01:35;;;;;;;6.30;2.20;;;8.70;99.90;;;;;;5009476;28;20193;-69
2021/03/17 12:04:04;;;;;;;6.03;2.03;;;8.80;99.90;;;;;;5003118;28;20198;-69
2021/03/17 12:06:32;;;;;;;10.40;2.30;;;9.20;99.90;;;;;;5009234;28;20252;-69
2021/03/17 12:09:00;;;;;;;5.40;1.57;;;9.70;99.90;;;;;;5006026;28;20203;-69
2021/03/17 12:11:28;;;;;;;3.03;1.67;;;10.00;99.90;;;;;;5008556;28;20301;-68
2021/03/17 12:13:59;;;;;;;4.20;1.53;;;10.10;99.90;;;;;;5021660;28;20286;-68
2021/03/17 12:16:26;;;;;;;3.57;1.90;;;10.40;99.90;;;;;;5009283;28;20248;-69
2021/03/17 12:18:54;;;;;;;6.47;1.87;;;11.00;99.90;;;;;;5008413;28;20237;-69
2021/03/17 12:21:21;;;;;;;3.23;1.70;;;11.50;99.90;;;;;;5008859;28;20205;-69
2021/03/17 12:23:50;;;;;;;6.27;1.87;;;11.60;99.90;;;;;;5008240;28;20637;-69
2021/03/17 12:26:20;;;;;;;4.07;1.67;;;11.30;99.90;;;;;;5000018;28;20294;-68
2021/03/17 12:28:51;;;;;;;5.20;1.90;;;10.50;99.90;;;;;;5007723;28;20870;-66
2021/03/17 12:31:22;;;;;;;7.67;2.30;;;10.00;99.90;;;;;;5008730;28;20256;-68
2021/03/17 12:33:49;;;;;;;4.47;1.90;;;9.70;99.90;;;;;;5008065;28;20572;-69
2021/03/17 12:36:17;;;;;;;5.03;1.70;;;9.50;99.90;;;;;;5009401;28;20264;-68
2021/03/17 12:38:44;;;;;;;6.73;1.93;;;9.20;99.90;;;;;;5007235;28;20201;-69
2021/03/17 12:41:12;;;;;;;6.10;1.80;;;9.10;99.90;;;;;;4999690;28;20226;-68
2021/03/17 12:43:40;;;;;;;6.20;1.90;;;8.90;99.90;;;;;;5006513;28;20224;-69
2021/03/17 12:46:10;;;;;;;5.83;1.97;;;8.90;99.90;;;;;;5008310;28;20202;-69
2021/03/17 12:48:38;;;;;;;8.80;2.37;;;8.80;99.90;;;;;;5009705;28;20197;-69
2021/03/17 12:51:06;;;;;;;7.40;2.20;;;8.80;99.90;;;;;;5008953;28;20225;-68
2021/03/17 12:53:35;;;;;;;11.23;2.57;;;8.90;99.90;;;;;;5008062;28;20204;-69
2021/03/17 12:56:04;;;;;;;5.13;1.97;;;9.00;99.90;;;;;;5009001;28;20287;-68
2021/03/17 12:58:31;;;;;;;8.50;2.07;;;9.00;99.90;;;;;;5009981;28;20198;-67
2021/03/17 13:00:58;;;;;;;10.20;3.13;;;9.10;99.90;;;;;;5006915;28;20233;-67
2021/03/17 13:03:26;;;;;;;9.83;2.77;;;9.00;99.90;;;;;;5010846;28;20244;-69
2021/03/17 13:05:55;;;;;;;7.27;2.00;;;9.00;99.90;;;;;;5009448;28;20656;-69
2021/03/17 13:08:23;;;;;;;5.60;2.43;;;8.90;99.90;;;;;;5009207;28;20189;-67
2021/03/17 13:10:51;;;;;;;8.17;2.30;;;8.80;99.90;;;;;;5009272;28;20562;-68